Time;durP1;ratioP1;P1;durP2;ratioP2;P2;SDS_P1;SDS_P2;PMS_P1;PMS_P2;Temp;Humidity;BMP_temperature;BMP_pressure;BME280_temperature;BME280_humidity;BME280_pressure;Samples;Min_cycle;Max_cycle;Signal;HPM_P1;HPM_P2
2021/09/05 06:56:15;;;;;;;4.22;1.30;;;15.40;75.10;;;;;;6167676;22;95073;-63
2021/09/05 06:58:47;;;;;;;2.40;1.23;;;15.40;75.30;;;;;;6207984;22;95645;-64
2021/09/05 07:01:17;;;;;;;1.83;1.27;;;15.50;75.50;;;;;;6143701;22;95663;-65
2021/09/05 07:03:47;;;;;;;0.70;0.70;;;15.50;75.30;;;;;;6122075;23;96666;-65
2021/09/05 07:06:16;;;;;;;2.08;1.33;;;15.50;75.40;;;;;;5962656;23;2653751;-66
2021/09/05 07:08:46;;;;;;;1.98;1.48;;;15.50;75.40;;;;;;6065388;23;95551;-65
2021/09/05 07:11:16;;;;;;;2.95;2.00;;;15.50;75.50;;;;;;6068318;23;95647;-65
2021/09/05 07:13:46;;;;;;;3.05;2.10;;;15.60;75.30;;;;;;6066953;23;96979;-65
2021/09/05 07:16:16;;;;;;;2.60;2.22;;;15.60;75.20;;;;;;6076076;23;95611;-65
2021/09/05 07:18:46;;;;;;;4.05;2.70;;;15.60;75.10;;;;;;6094816;23;95461;-65
2021/09/05 07:21:16;;;;;;;2.50;2.30;;;15.60;75.10;;;;;;6097472;23;95659;-65
2021/09/05 07:23:46;;;;;;;4.30;2.40;;;15.70;74.90;;;;;;6096825;23;96421;-65
2021/09/05 07:26:16;;;;;;;3.70;2.67;;;15.70;74.90;;;;;;6095942;23;95791;-65
2021/09/05 07:28:47;;;;;;;3.47;2.85;;;15.70;74.90;;;;;;6096870;23;95481;-65
2021/09/05 07:31:18;;;;;;;3.78;2.90;;;15.70;74.70;;;;;;6093348;23;95535;-65
2021/09/05 07:33:49;;;;;;;4.13;3.60;;;15.70;74.50;;;;;;6070312;23;97341;-65
2021/09/05 07:36:21;;;;;;;3.72;3.35;;;15.70;74.50;;;;;;6096732;23;95633;-65
2021/09/05 07:38:51;;;;;;;4.30;3.38;;;15.70;74.40;;;;;;6096357;23;95397;-64
2021/09/05 07:41:21;;;;;;;4.82;3.30;;;15.70;74.40;;;;;;6096471;23;95541;-64
2021/09/05 07:43:51;;;;;;;3.20;2.88;;;15.70;74.20;;;;;;6095013;23;96916;-65
2021/09/05 07:46:23;;;;;;;2.80;2.53;;;15.80;74.20;;;;;;6086770;23;95601;-65
2021/09/05 07:48:53;;;;;;;;;;;15.70;74.10;;;;;;6090014;23;95524;-65
2021/09/05 07:51:26;;;;;;;3.42;3.10;;;15.80;74.10;;;;;;6091131;23;95534;-65
2021/09/05 07:53:56;;;;;;;2.88;2.60;;;15.70;74.00;;;;;;6086215;23;96257;-65
2021/09/05 07:56:27;;;;;;;3.63;2.70;;;15.70;73.90;;;;;;6087223;23;95843;-65
2021/09/05 07:58:58;;;;;;;2.42;2.22;;;15.70;73.90;;;;;;6088108;23;95479;-65
2021/09/05 08:01:30;;;;;;;2.80;2.47;;;15.70;73.90;;;;;;6084697;23;96135;-65
2021/09/05 08:04:00;;;;;;;3.03;2.65;;;15.80;73.90;;;;;;6086519;23;96121;-65
2021/09/05 08:06:31;;;;;;;4.13;2.85;;;15.80;73.80;;;;;;6083401;23;95850;-65
2021/09/05 08:09:02;;;;;;;3.30;2.50;;;15.80;73.80;;;;;;6061413;23;95483;-65
2021/09/05 08:11:32;;;;;;;3.80;2.88;;;15.80;73.70;;;;;;6087547;23;95520;-65
2021/09/05 08:14:04;;;;;;;3.45;2.90;;;15.80;73.70;;;;;;6060733;23;98604;-65
2021/09/05 08:16:37;;;;;;;4.10;3.00;;;15.80;73.70;;;;;;6083727;23;95674;-64
2021/09/05 08:19:09;;;;;;;4.28;3.22;;;15.80;73.60;;;;;;6087850;23;95568;-65
2021/09/05 08:21:39;;;;;;;3.03;2.70;;;15.80;73.60;;;;;;6087434;23;95892;-65
2021/09/05 08:24:09;;;;;;;3.67;3.13;;;15.80;74.20;;;;;;6086874;23;96008;-65
2021/09/05 08:26:39;;;;;;;3.50;2.90;;;15.70;73.50;;;;;;6086909;23;96324;-64
2021/09/05 08:29:10;;;;;;;4.80;3.80;;;15.80;73.50;;;;;;6087795;23;95655;-65
2021/09/05 08:31:39;;;;;;;;;;;15.70;73.50;;;;;;6085369;23;95699;-65
2021/09/05 08:34:09;;;;;;;4.13;3.17;;;15.70;73.40;;;;;;6062696;23;96319;-65
2021/09/05 08:36:39;;;;;;;4.40;3.55;;;15.70;73.40;;;;;;6087695;23;95738;-65
2021/09/05 08:39:09;;;;;;;4.53;3.45;;;15.70;73.40;;;;;;6087774;23;95363;-65
2021/09/05 08:41:40;;;;;;;3.72;2.90;;;15.70;73.40;;;;;;6088438;23;95822;-65
2021/09/05 08:44:11;;;;;;;5.55;3.08;;;15.70;73.30;;;;;;6087813;23;96037;-65
2021/09/05 08:46:42;;;;;;;3.28;2.97;;;15.80;73.40;;;;;;6083828;23;95788;-66
2021/09/05 08:49:11;;;;;;;3.58;2.78;;;15.70;73.30;;;;;;6062792;23;95850;-65
2021/09/05 08:51:42;;;;;;;3.08;2.60;;;15.70;73.30;;;;;;6088227;23;95621;-65
2021/09/05 08:54:14;;;;;;;2.90;2.60;;;15.70;73.30;;;;;;6087298;23;95189;-67
2021/09/05 08:56:49;;;;;;;4.10;3.03;;;15.70;73.30;;;;;;6086444;23;95731;-66
2021/09/05 08:59:20;;;;;;;5.78;3.47;;;15.70;73.30;;;;;;6087893;23;95681;-65
2021/09/05 09:01:54;;;;;;;4.25;3.22;;;15.70;73.60;;;;;;6084370;23;95490;-66
2021/09/05 09:04:24;;;;;;;3.83;2.97;;;15.80;73.40;;;;;;6081409;23;95933;-65
2021/09/05 09:06:54;;;;;;;4.43;3.10;;;15.80;73.40;;;;;;6055076;23;95655;-66
2021/09/05 09:09:24;;;;;;;4.05;2.85;;;15.80;73.40;;;;;;6057998;23;95463;-65
2021/09/05 09:11:58;;;;;;;3.63;2.42;;;15.80;73.40;;;;;;6057984;23;95898;-65
2021/09/05 09:14:46;;;;;;;4.35;2.50;;;15.80;73.30;;;;;;6057797;23;96308;-65
2021/09/05 09:17:21;;;;;;;3.78;2.65;;;15.80;73.30;;;;;;6077347;23;95903;-65
2021/09/05 09:19:52;;;;;;;3.15;2.70;;;15.80;73.30;;;;;;6086249;23;95798;-64
2021/09/05 09:22:22;;;;;;;5.45;3.33;;;15.80;73.30;;;;;;6088280;23;95738;-65
2021/09/05 09:24:52;;;;;;;3.80;3.17;;;15.80;73.20;;;;;;6085234;23;96731;-65
2021/09/05 09:27:26;;;;;;;3.22;2.92;;;15.80;73.20;;;;;;6085783;23;95384;-65
2021/09/05 09:29:57;;;;;;;4.05;2.45;;;15.80;73.30;;;;;;6087998;23;95910;-65
2021/09/05 09:32:28;;;;;;;;;;;15.70;73.20;;;;;;6087688;23;95916;-65
2021/09/05 09:35:03;;;;;;;3.33;2.40;;;15.70;73.20;;;;;;6090560;23;95820;-66
2021/09/05 09:37:35;;;;;;;3.00;2.35;;;15.70;73.10;;;;;;6086717;23;95682;-65
2021/09/05 09:40:06;;;;;;;4.18;2.35;;;15.70;73.10;;;;;;6087909;23;95439;-65
2021/09/05 09:42:38;;;;;;;4.05;2.80;;;15.70;73.10;;;;;;6086960;23;95527;-65
2021/09/05 09:45:18;;;;;;;4.00;2.75;;;15.70;73.10;;;;;;6085172;23;95977;-66
2021/09/05 09:47:51;;;;;;;2.63;2.22;;;15.70;73.10;;;;;;6090448;23;100452;-65
2021/09/05 09:50:26;;;;;;;2.83;2.60;;;15.70;73.10;;;;;;6091888;23;95215;-65
2021/09/05 09:52:57;;;;;;;3.05;2.70;;;15.70;73.10;;;;;;6091781;23;95599;-65
2021/09/05 09:55:28;;;;;;;2.50;2.30;;;15.70;73.10;;;;;;6090370;23;95550;-65
2021/09/05 09:57:59;;;;;;;3.80;2.70;;;15.70;73.10;;;;;;6091454;23;96018;-65
2021/09/05 10:00:30;;;;;;;;;;;15.70;73.10;;;;;;6089188;23;95734;-65
2021/09/05 10:03:02;;;;;;;3.55;2.45;;;15.70;73.10;;;;;;6093932;23;95735;-64
2021/09/05 10:05:33;;;;;;;2.83;2.30;;;15.70;73.10;;;;;;6088017;23;95901;-65
2021/09/05 10:08:05;;;;;;;2.35;1.98;;;15.70;73.10;;;;;;6089154;23;95872;-65
2021/09/05 10:10:37;;;;;;;3.85;2.45;;;15.70;73.10;;;;;;6091261;23;95513;-65
2021/09/05 10:13:09;;;;;;;2.33;2.13;;;15.70;73.10;;;;;;6089850;23;95297;-65
2021/09/05 10:15:41;;;;;;;3.60;2.63;;;15.70;73.10;;;;;;6084199;23;95949;-64
2021/09/05 10:18:13;;;;;;;2.83;2.47;;;15.70;73.60;;;;;;6088601;23;95651;-64
2021/09/05 10:20:45;;;;;;;;;;;15.70;73.10;;;;;;6064287;23;95660;-64
2021/09/05 10:23:24;;;;;;;2.60;2.05;;;15.70;73.30;;;;;;6092178;23;95451;-64
2021/09/05 10:25:55;;;;;;;3.13;2.38;;;15.70;73.30;;;;;;6089305;23;96161;-64
2021/09/05 10:28:41;;;;;;;4.72;2.70;;;15.70;73.30;;;;;;6089104;23;95624;-64
2021/09/05 10:31:14;;;;;;;4.13;2.08;;;15.70;73.30;;;;;;6085818;23;95801;-63
2021/09/05 10:33:44;;;;;;;3.03;2.70;;;15.70;73.20;;;;;;6089677;23;94935;-64
2021/09/05 10:36:19;;;;;;;;;;;15.70;73.20;;;;;;6088652;23;96339;-64
2021/09/05 10:38:52;;;;;;;3.50;2.53;;;15.70;73.20;;;;;;6090572;23;95578;-64
2021/09/05 10:41:22;;;;;;;2.40;2.17;;;15.70;73.20;;;;;;6088832;23;95554;-63
2021/09/05 10:44:03;;;;;;;2.43;2.20;;;15.70;73.20;;;;;;6089724;23;95535;-64
2021/09/05 10:46:42;;;;;;;2.42;2.22;;;15.70;73.20;;;;;;6084981;23;96452;-65
2021/09/05 10:49:12;;;;;;;2.92;1.92;;;15.60;73.10;;;;;;6063485;23;95576;-65
2021/09/05 10:51:47;;;;;;;4.20;2.90;;;15.70;73.20;;;;;;6046665;23;95577;-63
2021/09/05 10:54:22;;;;;;;3.13;2.25;;;15.70;73.20;;;;;;6088899;23;95474;-64
2021/09/05 10:56:56;;;;;;;2.28;2.05;;;15.60;73.10;;;;;;6088977;23;96364;-64
2021/09/05 10:59:35;;;;;;;2.40;2.20;;;15.60;73.10;;;;;;6088559;23;96386;-64
2021/09/05 11:02:06;;;;;;;3.00;2.45;;;15.70;73.10;;;;;;6073803;23;95625;-64
2021/09/05 11:04:44;;;;;;;2.40;2.20;;;15.60;73.10;;;;;;6087499;23;95865;-65
2021/09/05 11:07:46;;;;;;;5.43;2.65;;;15.60;73.10;;;;;;6086112;23;96338;-64
2021/09/05 11:10:48;;;;;;;3.05;2.30;;;15.60;73.10;;;;;;6053088;23;95624;-65
2021/09/05 11:13:49;;;;;;;2.30;2.10;;;15.60;73.10;;;;;;6088215;23;95282;-64
2021/09/05 11:16:21;;;;;;;2.85;2.20;;;15.60;73.10;;;;;;6085017;23;95233;-64
2021/09/05 11:18:53;;;;;;;2.63;1.88;;;15.60;73.10;;;;;;6087673;23;95990;-64
2021/09/05 11:21:28;;;;;;;2.38;2.13;;;15.60;73.10;;;;;;6088713;23;95757;-65
2021/09/05 11:23:58;;;;;;;2.83;2.13;;;15.60;73.10;;;;;;6089241;23;95246;-65
2021/09/05 11:26:32;;;;;;;3.00;2.47;;;15.60;73.00;;;;;;6089027;23;95713;-65
2021/09/05 11:29:25;;;;;;;3.30;2.10;;;15.60;73.00;;;;;;6089218;23;95836;-65
2021/09/05 11:32:05;;;;;;;3.75;2.33;;;15.60;73.00;;;;;;6085277;23;95630;-64
2021/09/05 11:34:39;;;;;;;2.97;2.00;;;15.60;73.00;;;;;;6089952;23;95419;-64
2021/09/05 11:37:10;;;;;;;2.53;1.77;;;15.60;73.00;;;;;;6072244;23;95739;-78
2021/09/05 11:39:51;;;;;;;2.47;2.25;;;15.60;73.10;;;;;;6036970;23;98804;-78
2021/09/05 11:42:23;;;;;;;5.40;2.55;;;15.50;73.00;;;;;;6036971;23;95661;-77
2021/09/05 11:45:02;;;;;;;3.75;2.17;;;15.60;73.00;;;;;;6038757;23;95151;-78
2021/09/05 11:47:34;;;;;;;3.08;2.20;;;15.60;73.00;;;;;;6061822;23;95196;-78
2021/09/05 11:50:55;;;;;;;3.60;2.25;;;15.50;72.90;;;;;;6063958;23;95674;-79
2021/09/05 11:53:28;;;;;;;2.67;1.98;;;15.50;72.90;;;;;;6064102;23;95697;-78
2021/09/05 11:56:00;;;;;;;2.35;2.00;;;15.50;72.90;;;;;;6065462;23;95310;-78
2021/09/05 11:58:36;;;;;;;2.78;2.28;;;15.50;72.90;;;;;;6064303;23;95714;-78
2021/09/05 12:01:06;;;;;;;3.63;2.25;;;15.60;73.00;;;;;;6055177;23;96333;-77
2021/09/05 12:03:38;;;;;;;3.90;2.15;;;15.50;73.00;;;;;;6065091;23;95917;-78
2021/09/05 12:06:10;;;;;;;4.20;2.20;;;15.50;73.00;;;;;;6063980;23;95642;-77
2021/09/05 12:08:45;;;;;;;3.25;2.83;;;15.50;72.90;;;;;;6067203;23;95501;-77
2021/09/05 12:11:17;;;;;;;3.53;2.30;;;15.50;73.00;;;;;;6016953;23;96042;-78
2021/09/05 12:13:55;;;;;;;3.20;2.00;;;15.50;72.90;;;;;;6057933;23;95929;-64
2021/09/05 12:16:28;;;;;;;3.72;2.08;;;15.50;72.90;;;;;;6030368;23;96667;-64
2021/09/05 12:19:08;;;;;;;4.15;2.65;;;15.50;72.90;;;;;;6059292;23;95507;-65
2021/09/05 12:21:40;;;;;;;2.28;1.90;;;15.50;72.90;;;;;;6060262;23;95987;-65
2021/09/05 12:24:21;;;;;;;3.65;2.38;;;15.50;72.90;;;;;;6060330;23;95510;-65
2021/09/05 12:26:51;;;;;;;4.33;2.40;;;15.50;72.90;;;;;;6060827;23;95394;-65
2021/09/05 12:29:32;;;;;;;3.30;1.88;;;15.50;72.90;;;;;;6060496;23;95071;-65
2021/09/05 12:32:04;;;;;;;3.60;2.28;;;15.50;72.90;;;;;;6055512;23;96818;-65
2021/09/05 12:34:40;;;;;;;2.70;2.05;;;15.50;72.90;;;;;;6059685;23;95853;-65
2021/09/05 12:37:15;;;;;;;5.22;2.65;;;15.50;72.90;;;;;;6060287;23;95500;-65
2021/09/05 12:39:51;;;;;;;2.88;2.40;;;15.50;72.90;;;;;;6060602;23;95524;-65
2021/09/05 12:42:29;;;;;;;3.85;2.58;;;15.40;72.90;;;;;;6060260;23;96232;-65
2021/09/05 12:45:04;;;;;;;4.03;2.25;;;15.50;72.90;;;;;;6060038;23;95623;-65
2021/09/05 12:47:34;;;;;;;5.68;2.20;;;15.40;72.90;;;;;;6058377;23;95498;-64
2021/09/05 12:50:06;;;;;;;4.63;2.70;;;15.50;73.60;;;;;;6061195;23;95471;-65
2021/09/05 12:52:41;;;;;;;2.88;2.67;;;15.50;72.90;;;;;;6059950;23;96965;-64
2021/09/05 12:55:12;;;;;;;4.65;2.80;;;15.40;72.90;;;;;;6059377;23;95542;-65
2021/09/05 12:57:44;;;;;;;5.63;2.80;;;15.50;72.90;;;;;;6060153;23;95594;-64
2021/09/05 13:00:15;;;;;;;3.88;2.47;;;15.50;72.90;;;;;;6057740;23;95594;-65
2021/09/05 13:02:46;;;;;;;4.80;2.80;;;15.40;72.90;;;;;;6059507;23;103060;-65
2021/09/05 13:05:17;;;;;;;5.07;3.08;;;15.40;72.80;;;;;;6056569;23;95946;-65
2021/09/05 13:07:48;;;;;;;5.10;3.00;;;15.40;72.80;;;;;;6059379;23;95432;-65
2021/09/05 13:10:20;;;;;;;4.13;2.70;;;15.50;72.90;;;;;;6060708;23;95649;-65
2021/09/05 13:12:51;;;;;;;3.78;2.53;;;15.50;72.80;;;;;;6059265;23;96797;-64
2021/09/05 13:15:24;;;;;;;5.43;3.13;;;15.40;73.50;;;;;;6056678;23;95759;-64
2021/09/05 13:17:55;;;;;;;4.07;3.10;;;15.40;72.80;;;;;;6060289;23;95872;-63
2021/09/05 13:20:27;;;;;;;6.07;3.10;;;15.40;72.90;;;;;;6059791;23;95725;-64
2021/09/05 13:22:58;;;;;;;5.55;3.17;;;15.40;72.80;;;;;;6058542;23;96504;-63
2021/09/05 13:25:29;;;;;;;4.07;3.08;;;15.50;72.90;;;;;;6059225;23;95632;-64
2021/09/05 13:28:00;;;;;;;;;;;15.40;72.80;;;;;;6034953;23;95646;-64
2021/09/05 13:30:30;;;;;;;5.13;3.03;;;15.40;72.80;;;;;;6032303;23;96020;-64
2021/09/05 13:33:03;;;;;;;5.35;3.00;;;15.40;72.90;;;;;;6059422;23;96872;-64
2021/09/05 13:35:35;;;;;;;4.72;3.00;;;15.40;72.90;;;;;;6059385;23;95907;-64
2021/09/05 13:38:10;;;;;;;6.28;3.45;;;15.40;72.90;;;;;;6059552;23;95319;-64
2021/09/05 13:40:41;;;;;;;5.78;3.05;;;15.50;72.90;;;;;;6060312;23;95628;-64
2021/09/05 13:43:11;;;;;;;5.90;2.65;;;15.40;72.90;;;;;;6059139;23;96278;-64
2021/09/05 13:45:45;;;;;;;6.05;3.90;;;15.40;72.80;;;;;;6055552;23;95340;-65
2021/09/05 13:48:16;;;;;;;5.07;3.47;;;15.40;72.90;;;;;;6035046;23;95722;-65
2021/09/05 13:50:50;;;;;;;3.78;2.88;;;15.40;72.90;;;;;;6061117;23;95852;-64
2021/09/05 13:53:23;;;;;;;4.63;2.97;;;15.40;73.00;;;;;;6059802;23;95951;-64
2021/09/05 13:55:55;;;;;;;5.38;2.88;;;15.40;72.90;;;;;;6059646;23;96087;-65
2021/09/05 13:58:28;;;;;;;4.75;2.72;;;15.40;72.90;;;;;;6059684;23;95416;-65
2021/09/05 14:01:03;;;;;;;5.85;3.30;;;15.40;72.90;;;;;;6057421;23;95685;-64
2021/09/05 14:03:36;;;;;;;6.55;3.47;;;15.40;72.90;;;;;;6059093;23;96019;-64
2021/09/05 14:06:07;;;;;;;;;;;15.40;72.90;;;;;;6057054;23;95714;-64
2021/09/05 14:08:45;;;;;;;5.63;3.70;;;15.40;72.90;;;;;;6062128;23;96000;-64
2021/09/05 14:11:18;;;;;;;5.93;3.75;;;15.40;72.90;;;;;;6059618;23;95892;-64
2021/09/05 14:13:50;;;;;;;5.55;3.30;;;15.40;72.90;;;;;;6058402;23;96794;-64
2021/09/05 14:16:20;;;;;;;;;;;15.40;72.90;;;;;;6056681;23;96615;-64
2021/09/05 14:18:53;;;;;;;4.78;3.20;;;15.40;72.90;;;;;;6061790;23;95879;-65
2021/09/05 14:21:22;;;;;;;5.07;3.33;;;15.30;72.80;;;;;;6060571;23;95561;-64
2021/09/05 14:23:54;;;;;;;4.57;2.90;;;15.40;72.90;;;;;;6059512;23;96020;-64
2021/09/05 14:26:26;;;;;;;5.85;3.15;;;15.40;72.90;;;;;;6059963;23;95352;-64
2021/09/05 14:29:04;;;;;;;4.22;2.75;;;15.40;72.90;;;;;;6060335;23;95470;-64
2021/09/05 14:32:13;;;;;;;4.03;2.65;;;15.40;72.90;;;;;;6028874;23;95590;-63
2021/09/05 14:51:42;;;;;;;4.47;2.65;;;15.40;72.90;;;;;;6061117;23;96194;-63
2021/09/05 14:56:46;;;;;;;4.72;3.25;;;15.30;72.80;;;;;;6060479;23;95716;-65
2021/09/05 15:02:35;;;;;;;4.50;3.15;;;15.30;72.90;;;;;;5942643;23;97224;-65
2021/09/05 15:11:00;;;;;;;6.10;3.33;;;15.50;76.40;;;;;;5970931;23;95642;-62
2021/09/05 15:13:35;;;;;;;6.10;3.85;;;15.60;77.10;;;;;;5971489;23;95756;-63
2021/09/05 15:16:08;;;;;;;5.97;4.68;;;15.70;77.60;;;;;;5967440;23;95663;-62
2021/09/05 15:18:40;;;;;;;6.00;4.15;;;15.80;77.70;;;;;;5970739;23;96531;-63
2021/09/05 15:21:14;;;;;;;4.82;3.47;;;15.90;77.60;;;;;;5970592;23;95621;-64
2021/09/05 15:23:50;;;;;;;4.95;3.63;;;16.00;77.40;;;;;;5972705;23;95032;-63
2021/09/05 15:26:26;;;;;;;5.63;3.20;;;16.10;77.50;;;;;;5971009;23;95947;-63
2021/09/05 15:53:42;;;;;;;4.05;2.60;;;16.80;75.00;;;;;;6059815;23;95589;-64
2021/09/05 15:56:14;;;;;;;4.20;2.65;;;16.80;74.80;;;;;;6060002;23;95733;-64
2021/09/05 15:58:54;;;;;;;2.85;2.30;;;16.80;74.70;;;;;;6060576;23;95312;-65
2021/09/05 16:01:52;;;;;;;4.05;2.38;;;16.90;75.30;;;;;;6031085;23;98131;-64
2021/09/05 16:17:53;;;;;;;6.57;2.50;;;17.20;73.30;;;;;;6059429;23;95908;-70
2021/09/05 16:20:25;;;;;;;3.38;2.15;;;17.20;73.10;;;;;;6034850;23;95112;-69
2021/09/05 16:22:57;;;;;;;4.97;2.05;;;17.20;72.80;;;;;;6060673;23;96206;-70
2021/09/05 16:25:29;;;;;;;4.47;2.40;;;17.20;73.30;;;;;;6059977;23;95622;-69
2021/09/05 16:28:00;;;;;;;5.13;2.65;;;17.20;72.50;;;;;;6060781;23;95034;-69
2021/09/05 16:30:36;;;;;;;3.22;1.98;;;17.10;72.40;;;;;;6058116;23;95221;-70
2021/09/05 16:38:26;;;;;;;2.47;1.80;;;17.10;72.20;;;;;;6061443;23;95611;-70
2021/09/05 16:40:57;;;;;;;5.53;2.58;;;17.10;72.20;;;;;;6061931;23;95917;-70
2021/09/05 16:43:29;;;;;;;2.95;2.08;;;17.10;72.10;;;;;;6036215;23;98212;-70
2021/09/05 16:45:59;;;;;;;4.55;2.00;;;17.10;72.00;;;;;;6059336;23;96190;-70
2021/09/05 16:48:30;;;;;;;4.10;1.87;;;17.10;71.90;;;;;;6063774;23;95761;-71
2021/09/05 16:51:03;;;;;;;5.47;2.67;;;17.00;71.90;;;;;;6034776;23;95526;-70
2021/09/05 16:53:38;;;;;;;3.72;2.15;;;17.00;71.90;;;;;;6061084;23;96006;-71
2021/09/05 16:56:09;;;;;;;4.82;2.55;;;17.00;71.80;;;;;;6034862;23;97378;-69
2021/09/05 16:58:41;;;;;;;4.88;2.35;;;17.00;71.80;;;;;;6060630;23;95338;-71
2021/09/05 17:01:12;;;;;;;5.40;1.88;;;17.00;71.80;;;;;;6058341;23;95856;-71
2021/09/05 17:03:46;;;;;;;4.85;2.20;;;17.00;71.70;;;;;;6060412;23;96295;-70
2021/09/05 17:06:17;;;;;;;3.15;1.80;;;17.00;71.70;;;;;;6057139;23;95591;-69
2021/09/05 17:08:50;;;;;;;4.07;2.10;;;17.00;71.70;;;;;;6062896;23;95444;-70
2021/09/05 17:11:22;;;;;;;5.28;2.15;;;17.00;71.60;;;;;;6062914;23;95234;-69
2021/09/05 17:13:54;;;;;;;3.42;1.77;;;17.00;71.60;;;;;;6061964;23;96503;-69
2021/09/05 17:16:29;;;;;;;5.28;2.45;;;17.00;71.60;;;;;;6031685;23;97968;-69
2021/09/05 17:19:00;;;;;;;3.35;1.80;;;17.00;71.60;;;;;;6062046;23;95130;-70
2021/09/05 17:21:31;;;;;;;4.07;1.83;;;16.90;71.50;;;;;;6062389;23;95731;-69
2021/09/05 17:24:01;;;;;;;;;;;16.90;71.50;;;;;;6062608;23;95993;-69
2021/09/05 17:26:31;;;;;;;3.88;2.50;;;16.90;71.50;;;;;;6063591;23;95657;-69
2021/09/05 17:29:02;;;;;;;5.78;2.00;;;16.90;71.50;;;;;;6062609;23;95876;-69
2021/09/05 17:31:34;;;;;;;4.13;1.85;;;16.90;71.50;;;;;;6033684;23;95848;-69
2021/09/05 17:34:07;;;;;;;;;;;16.90;71.40;;;;;;6062944;23;96030;-69
2021/09/05 17:36:39;;;;;;;5.00;2.45;;;16.90;71.50;;;;;;6063596;23;95538;-69
2021/09/05 17:39:09;;;;;;;3.33;1.52;;;16.90;71.40;;;;;;6061907;23;95690;-70
2021/09/05 17:41:39;;;;;;;4.63;2.22;;;16.90;71.40;;;;;;6062230;23;95313;-69
2021/09/05 17:44:10;;;;;;;3.97;2.22;;;16.90;71.30;;;;;;6061961;23;95962;-69
2021/09/05 17:46:40;;;;;;;4.30;1.73;;;16.80;71.30;;;;;;6057689;23;95722;-69
2021/09/05 17:49:12;;;;;;;3.90;1.83;;;16.80;71.20;;;;;;6063465;23;95051;-70
2021/09/05 17:51:46;;;;;;;4.60;1.60;;;16.80;71.30;;;;;;6062958;23;95486;-70
2021/09/05 17:54:21;;;;;;;2.83;1.48;;;16.80;71.20;;;;;;6061487;23;96693;-70
2021/09/05 17:56:52;;;;;;;3.05;1.55;;;16.80;71.20;;;;;;6062127;23;95257;-70
2021/09/05 17:59:24;;;;;;;;;;;16.80;71.20;;;;;;6063304;23;95556;-70
2021/09/05 18:01:54;;;;;;;;;;;16.70;71.10;;;;;;6061181;23;95466;-69
2021/09/05 18:04:29;;;;;;;;;;;16.70;71.20;;;;;;6063001;23;96007;-69
2021/09/05 18:07:06;;;;;;;;;;;16.70;71.10;;;;;;6062424;23;96213;-70
2021/09/05 18:09:36;;;;;;;;;;;16.70;71.10;;;;;;6065668;23;95481;-71
2021/09/05 18:12:07;;;;;;;;;;;16.70;71.10;;;;;;6037929;23;95789;-71
2021/09/05 18:14:40;;;;;;;;;;;16.70;71.10;;;;;;6063692;23;96506;-71
2021/09/05 18:17:10;;;;;;;;;;;16.70;71.10;;;;;;6035566;23;95457;-71
2021/09/05 18:19:41;;;;;;;;;;;16.60;71.00;;;;;;6065203;23;95433;-70
2021/09/05 18:22:14;;;;;;;;;;;16.60;71.00;;;;;;6065227;23;95735;-70
2021/09/05 18:24:46;;;;;;;;;;;16.60;71.00;;;;;;6064801;23;95588;-70
2021/09/05 18:27:16;;;;;;;;;;;16.60;71.10;;;;;;6064189;23;95292;-70
2021/09/05 18:29:48;;;;;;;;;;;16.60;71.00;;;;;;6064237;23;95222;-70
2021/09/05 18:32:20;;;;;;;;;;;16.50;71.00;;;;;;6061661;23;95161;-70
2021/09/05 18:34:52;;;;;;;;;;;16.60;71.00;;;;;;6063812;23;96406;-70
2021/09/05 18:37:23;;;;;;;;;;;16.50;71.00;;;;;;6063533;23;95474;-70
2021/09/05 18:39:52;;;;;;;;;;;16.50;70.90;;;;;;6064383;23;95871;-69
2021/09/05 18:42:23;;;;;;;;;;;16.50;71.00;;;;;;6039779;23;95897;-70
2021/09/05 18:44:53;;;;;;;;;;;16.50;70.90;;;;;;6063547;23;95915;-69
2021/09/05 18:47:26;;;;;;;;;;;16.50;70.90;;;;;;6061164;23;98183;-69
2021/09/05 18:49:59;;;;;;;;;;;16.40;70.70;;;;;;6040506;23;95799;-71
2021/09/05 18:52:30;;;;;;;;;;;16.40;70.70;;;;;;6039507;23;95688;-70
2021/09/05 18:55:05;;;;;;;;;;;16.50;70.70;;;;;;6039020;23;95959;-69
2021/09/05 18:57:38;;;;;;;;;;;16.40;70.70;;;;;;6063776;23;95601;-69
2021/09/05 19:00:10;;;;;;;;;;;16.40;70.60;;;;;;6063657;23;95632;-70
2021/09/05 19:02:41;;;;;;;;;;;16.40;70.60;;;;;;6037803;23;96042;-70
2021/09/05 19:05:11;;;;;;;;;;;16.40;70.60;;;;;;6061051;23;95980;-70
2021/09/05 19:07:45;;;;;;;;;;;16.40;70.60;;;;;;6062001;23;95450;-69
2021/09/05 19:10:15;;;;;;;;;;;16.30;70.60;;;;;;6063932;23;95643;-68
2021/09/05 19:12:46;;;;;;;;;;;16.30;70.60;;;;;;6037236;23;95715;-69
2021/09/05 19:15:18;;;;;;;;;;;16.30;70.60;;;;;;6059983;23;96303;-68
2021/09/05 19:17:51;;;;;;;;;;;16.30;70.60;;;;;;6060891;23;95389;-69
2021/09/05 19:20:22;;;;;;;;;;;16.30;70.60;;;;;;6062596;23;95590;-68
2021/09/05 19:22:55;;;;;;;;;;;16.30;70.70;;;;;;6038133;23;95523;-69
2021/09/05 19:25:25;;;;;;;;;;;16.20;70.60;;;;;;6062602;23;95986;-70
2021/09/05 19:27:55;;;;;;;;;;;16.20;70.60;;;;;;6062788;23;95752;-69
2021/09/05 19:30:25;;;;;;;;;;;16.20;70.70;;;;;;6059012;23;95115;-69
2021/09/05 19:32:58;;;;;;;;;;;16.10;70.60;;;;;;6038302;23;95506;-70
2021/09/05 19:35:30;;;;;;;;;;;16.10;70.60;;;;;;6062206;23;96574;-69
2021/09/05 19:38:01;;;;;;;;;;;16.10;70.70;;;;;;6036653;23;95645;-68
2021/09/05 19:40:31;;;;;;;;;;;16.10;70.60;;;;;;6062925;23;95709;-67
2021/09/05 19:43:03;;;;;;;;;;;16.10;70.60;;;;;;6063829;23;95368;-68
2021/09/05 19:45:32;;;;;;;;;;;16.10;70.60;;;;;;6059938;23;96011;-68
2021/09/05 19:48:02;;;;;;;;;;;16.10;70.50;;;;;;6063403;23;95812;-69
2021/09/05 19:50:32;;;;;;;;;;;16.10;70.60;;;;;;6064314;23;95585;-69
2021/09/05 19:53:01;;;;;;;;;;;16.00;70.50;;;;;;6064456;23;95584;-69
2021/09/05 19:55:32;;;;;;;;;;;16.00;70.50;;;;;;6063973;23;96959;-69
2021/09/05 19:58:04;;;;;;;;;;;16.00;70.60;;;;;;6037715;23;95573;-68
2021/09/05 20:00:36;;;;;;;;;;;16.00;70.60;;;;;;6060495;23;95515;-67
2021/09/05 20:03:06;;;;;;;;;;;15.90;70.60;;;;;;6064291;23;95712;-69
2021/09/05 20:05:35;;;;;;;;;;;15.90;70.70;;;;;;6060442;23;95751;-69
2021/09/05 20:08:06;;;;;;;;;;;15.90;70.70;;;;;;6061605;23;95398;-68
2021/09/05 20:10:39;;;;;;;;;;;15.90;70.80;;;;;;6063679;23;95428;-67
2021/09/05 20:13:10;;;;;;;;;;;15.80;70.80;;;;;;6063011;23;95548;-68
2021/09/05 20:15:43;;;;;;;;;;;15.80;70.80;;;;;;6033289;23;97894;-67
2021/09/05 20:18:15;;;;;;;;;;;15.80;70.80;;;;;;6062965;23;95532;-68
2021/09/05 20:20:46;;;;;;;;;;;15.80;70.90;;;;;;6037519;23;95540;-68
2021/09/05 20:23:15;;;;;;;;;;;15.70;70.80;;;;;;6063198;23;95777;-67
2021/09/05 20:25:44;;;;;;;;;;;15.70;70.80;;;;;;6062971;23;96403;-69
2021/09/05 20:28:14;;;;;;;;;;;15.70;70.90;;;;;;6062883;23;95618;-68
2021/09/05 20:30:45;;;;;;;;;;;15.70;70.80;;;;;;6059428;23;95539;-67
2021/09/05 20:33:17;;;;;;;;;;;15.70;70.80;;;;;;6038421;23;95965;-69
2021/09/05 20:35:47;;;;;;;;;;;15.60;70.70;;;;;;6062795;23;95975;-68
2021/09/05 20:38:16;;;;;;;;;;;15.60;70.70;;;;;;6062225;23;96010;-68
2021/09/05 20:40:46;;;;;;;;;;;15.60;70.70;;;;;;6037864;23;95663;-67
2021/09/05 20:43:15;;;;;;;;;;;15.60;70.80;;;;;;6063867;23;95599;-68
2021/09/05 20:45:46;;;;;;;;;;;15.60;70.80;;;;;;6078894;23;96330;-79
2021/09/05 20:48:23;;;;;;;;;;;15.60;70.90;;;;;;6099037;23;95348;-79
2021/09/05 20:50:54;;;;;;;;;;;15.50;70.90;;;;;;6099606;23;95607;-79
2021/09/05 20:53:24;;;;;;;;;;;15.50;70.90;;;;;;6098509;23;95592;-79
2021/09/05 20:55:55;;;;;;;;;;;15.50;70.90;;;;;;6097907;23;95938;-78
2021/09/05 20:58:26;;;;;;;;;;;15.50;71.00;;;;;;6097282;23;95387;-79
2021/09/05 21:00:56;;;;;;;;;;;15.50;71.00;;;;;;6065670;23;95519;-79
2021/09/05 21:03:26;;;;;;;;;;;15.40;71.00;;;;;;6068291;23;95199;-79
2021/09/05 21:05:56;;;;;;;;;;;15.40;71.10;;;;;;6061899;23;96020;-79
2021/09/05 21:08:26;;;;;;;;;;;15.40;71.10;;;;;;6066506;23;95471;-79
2021/09/05 21:10:55;;;;;;;;;;;15.40;71.10;;;;;;6067994;23;95629;-79
2021/09/05 21:13:26;;;;;;;;;;;15.40;71.20;;;;;;6067723;23;95633;-79
2021/09/05 21:15:59;;;;;;;;;;;15.30;71.20;;;;;;6071160;23;96309;-79
2021/09/05 21:18:29;;;;;;;;;;;15.30;71.20;;;;;;6097722;23;95510;-79
2021/09/05 21:21:00;;;;;;;;;;;15.30;71.20;;;;;;6098364;23;95583;-79
2021/09/05 21:23:29;;;;;;;;;;;15.30;71.20;;;;;;6097413;23;95563;-79
2021/09/05 21:25:58;;;;;;;;;;;15.30;71.20;;;;;;6095956;23;95939;-79
2021/09/05 21:28:28;;;;;;;;;;;15.30;71.20;;;;;;6095376;23;95757;-79
2021/09/05 21:30:58;;;;;;;;;;;15.20;71.10;;;;;;6093216;23;95872;-78
2021/09/05 21:33:29;;;;;;;;;;;15.30;71.20;;;;;;6097111;23;95567;-79
2021/09/05 21:35:59;;;;;;;;;;;15.20;71.20;;;;;;6069853;23;95920;-78
2021/09/05 21:38:29;;;;;;;;;;;15.20;71.20;;;;;;6069904;23;95074;-79
2021/09/05 21:40:59;;;;;;;;;;;15.20;71.30;;;;;;6096208;23;95023;-79
2021/09/05 21:43:28;;;;;;;;;;;15.20;71.30;;;;;;6096953;23;95788;-79
2021/09/05 21:45:58;;;;;;;;;;;15.20;71.40;;;;;;6061014;23;97582;-79
2021/09/05 21:48:29;;;;;;;;;;;15.20;71.40;;;;;;6067822;23;95823;-78